Ana Sayfa
METAR-TAF:

METAR-TAF

Havaalanları :

Dinwiddie County Airport

Petersburg, Virginia, Amerika Birleşik Devletleri

Enlem: 37-11N, Boylam: 077-31W, yükseklik: 59 m

Güncel hava durumu gözlemi

Rapor saat 00:35 UTC de 9 saat ve 22 dakika önce yapıldı.
Sakin rüzgar
Sıcaklık 23°C
Nem 89%
Basınç 1013 hPa
Görüş mesafesi: 16.1 km
Açık gökyüzü

METAR: KPTB 220035Z AUTO 00000KT 10SM CLR 23/21 A2991 RMK AO2 T02290209

Saat: 05:57 (09:57 UTC)


TAF: eksik

4.000'den fazla havaalanı için hava durumu gözlemleri ve tahminleri (METAR ve TAF raporları).

Kullanılabilir istasyonlar harita üzerinde sarı ve kırmızı noktalarla gösterilir.

İstasyonun adını görmek için fareyi noktanın üzerinde gezdirin.

Sonrasında hava gözlem ve tahminlerini görmek için tıklayın.

Haritayı değiştirmek için: yaklaştırmak için siyah artı işaretli yeşil düğmeye ve uzaklaştırmak için de eksi işaretli düğmeye hızla tıklayın; bitişik haritalar için yeşil okları kullanın.


METAR-TAF: